Time;durP1;ratioP1;P1;durP2;ratioP2;P2;SDS_P1;SDS_P2;PMS_P1;PMS_P2;Temp;Humidity;BMP_temperature;BMP_pressure;BME280_temperature;BME280_humidity;BME280_pressure;Samples;Min_cycle;Max_cycle;Signal;HPM_P1;HPM_P2
2021/07/29 00:00:51;;;;;;;13.60;3.28;;;14.80;99.90;;;;;;5071987;28;20050;-86
2021/07/29 00:03:19;;;;;;;17.83;3.10;;;14.80;99.90;;;;;;5071036;28;20110;-87
2021/07/29 00:05:49;;;;;;;18.23;2.88;;;14.80;99.90;;;;;;5073184;28;20279;-86
2021/07/29 00:08:19;;;;;;;14.10;3.00;;;14.70;99.90;;;;;;5067168;28;20131;-86
2021/07/29 00:10:47;;;;;;;13.13;3.05;;;14.70;99.90;;;;;;5072712;28;20066;-86
2021/07/29 00:13:16;;;;;;;13.93;2.85;;;14.70;99.90;;;;;;5041591;28;20496;-86
2021/07/29 00:15:46;;;;;;;11.73;2.78;;;14.70;99.90;;;;;;5050256;28;20135;-86
2021/07/29 00:20:42;;;;;;;13.05;2.75;;;14.70;99.90;;;;;;5071603;28;20045;-86
2021/07/29 00:23:09;;;;;;;12.83;2.50;;;14.60;99.90;;;;;;5053227;28;20377;-86
2021/07/29 00:25:36;;;;;;;11.13;2.60;;;14.60;99.90;;;;;;5045361;28;20678;-87
2021/07/29 00:28:03;;;;;;;12.30;2.72;;;14.60;99.90;;;;;;5071689;28;20047;-86
2021/07/29 00:30:30;;;;;;;16.30;2.90;;;14.60;99.90;;;;;;5053603;28;20041;-86
2021/07/29 00:32:57;;;;;;;14.20;2.97;;;14.50;99.90;;;;;;5071809;28;20049;-86
2021/07/29 00:35:24;;;;;;;17.23;2.50;;;14.50;99.90;;;;;;5053274;28;20040;-86
2021/07/29 00:37:55;;;;;;;9.68;2.35;;;14.50;99.90;;;;;;5071585;28;20400;-86
2021/07/29 00:40:22;;;;;;;15.38;2.78;;;14.50;99.90;;;;;;5071163;28;20102;-86
2021/07/29 00:42:49;;;;;;;10.50;2.38;;;14.50;99.90;;;;;;5062499;28;20109;-87
2021/07/29 00:45:17;;;;;;;17.48;2.63;;;14.50;99.90;;;;;;5070640;28;20531;-86
2021/07/29 00:47:46;;;;;;;11.15;2.60;;;14.50;99.90;;;;;;5071503;28;20518;-86
2021/07/29 00:50:33;;;;;;;7.47;2.13;;;14.50;99.90;;;;;;5042807;28;20048;-86
2021/07/29 00:53:03;;;;;;;12.63;2.80;;;14.40;99.90;;;;;;5071481;28;20166;-86
2021/07/29 00:55:30;;;;;;;15.93;2.88;;;14.40;99.90;;;;;;5068828;28;20102;-86
2021/07/29 00:57:58;;;;;;;15.57;2.72;;;14.40;99.90;;;;;;5071136;28;20068;-87
2021/07/29 01:00:25;;;;;;;15.50;2.90;;;14.40;99.90;;;;;;5054267;28;20476;-86
2021/07/29 01:02:56;;;;;;;14.73;2.97;;;14.30;99.90;;;;;;5075051;28;20048;-86
2021/07/29 01:05:23;;;;;;;12.00;3.00;;;14.30;99.90;;;;;;5074357;28;20072;-86
2021/07/29 01:07:53;;;;;;;9.93;2.35;;;14.30;99.90;;;;;;5075281;28;20051;-86
2021/07/29 01:10:20;;;;;;;13.23;2.60;;;14.30;99.90;;;;;;5073980;28;20044;-86
2021/07/29 01:12:47;;;;;;;18.63;3.00;;;14.30;99.90;;;;;;5074918;28;20379;-86
2021/07/29 01:15:14;;;;;;;15.50;3.35;;;14.30;99.90;;;;;;5074269;28;20450;-86
2021/07/29 01:17:41;;;;;;;8.30;2.50;;;14.30;99.90;;;;;;5057497;28;20094;-86
2021/07/29 01:20:09;;;;;;;15.45;2.70;;;14.30;99.90;;;;;;5074737;28;20048;-86
2021/07/29 01:22:37;;;;;;;16.13;2.70;;;14.30;99.90;;;;;;5058164;28;20127;-86
2021/07/29 01:25:05;;;;;;;12.52;2.72;;;14.30;99.90;;;;;;5058411;28;20270;-85
2021/07/29 01:27:32;;;;;;;15.48;2.75;;;14.20;99.90;;;;;;5084226;28;20040;-86
2021/07/29 01:30:00;;;;;;;11.88;2.30;;;14.20;99.90;;;;;;5056850;28;20045;-85
2021/07/29 01:32:28;;;;;;;12.40;2.83;;;14.20;99.90;;;;;;5074029;28;20060;-86
2021/07/29 01:34:59;;;;;;;13.85;2.90;;;14.20;99.90;;;;;;5074943;28;20275;-86
2021/07/29 01:37:26;;;;;;;10.48;2.35;;;14.20;99.90;;;;;;5072493;28;20037;-86
2021/07/29 01:39:54;;;;;;;11.73;2.30;;;14.20;99.90;;;;;;5074067;28;20060;-86
2021/07/29 01:42:21;;;;;;;13.68;2.67;;;14.20;99.90;;;;;;5055915;28;20124;-87
2021/07/29 01:44:48;;;;;;;12.57;2.53;;;14.20;99.90;;;;;;5074415;28;20575;-87
2021/07/29 01:47:16;;;;;;;16.30;3.00;;;14.20;99.90;;;;;;5058065;28;20113;-86
2021/07/29 01:49:43;;;;;;;20.02;4.15;;;14.20;99.90;;;;;;5070849;28;20063;-87
2021/07/29 01:52:10;;;;;;;10.02;2.88;;;14.10;99.90;;;;;;5073712;28;20048;-87
2021/07/29 01:54:37;;;;;;;12.98;2.80;;;14.10;99.90;;;;;;5074187;28;20113;-86
2021/07/29 01:57:08;;;;;;;10.40;2.42;;;14.10;99.90;;;;;;5073732;28;20369;-86
2021/07/29 01:59:36;;;;;;;10.07;2.70;;;14.10;99.90;;;;;;5056591;28;20127;-86
2021/07/29 02:02:05;;;;;;;12.27;2.55;;;14.10;99.90;;;;;;5074010;28;20098;-86
2021/07/29 02:04:34;;;;;;;15.95;3.25;;;14.10;99.90;;;;;;5073789;28;20036;-86
2021/07/29 02:07:01;;;;;;;;;;;14.10;99.90;;;;;;5052141;28;20056;-86
2021/07/29 02:09:29;;;;;;;15.40;2.83;;;14.00;99.90;;;;;;5055776;28;19927;-86
2021/07/29 02:11:56;;;;;;;14.02;2.67;;;14.00;99.90;;;;;;5073335;28;20048;-86
2021/07/29 02:14:24;;;;;;;13.38;2.63;;;14.00;99.90;;;;;;5073608;28;20120;-86
2021/07/29 02:16:51;;;;;;;14.40;2.85;;;14.00;99.90;;;;;;5056645;28;20369;-86
2021/07/29 02:19:18;;;;;;;15.93;2.53;;;14.00;99.90;;;;;;5072583;28;20044;-86
2021/07/29 02:21:45;;;;;;;19.00;3.30;;;14.00;99.90;;;;;;5073374;28;20132;-86
2021/07/29 02:24:12;;;;;;;10.00;2.28;;;14.00;99.90;;;;;;5073100;28;20121;-86
2021/07/29 02:26:41;;;;;;;15.73;2.88;;;14.00;99.90;;;;;;5073676;28;20395;-86
2021/07/29 02:29:08;;;;;;;11.13;2.80;;;14.00;99.90;;;;;;5072841;28;20040;-86
2021/07/29 02:31:35;;;;;;;11.55;2.40;;;13.90;99.90;;;;;;5074053;28;20068;-85
2021/07/29 02:34:02;;;;;;;12.55;2.35;;;13.90;99.90;;;;;;5073476;28;20512;-86
2021/07/29 02:36:29;;;;;;;16.25;3.08;;;13.90;99.90;;;;;;5072887;28;20036;-86
2021/07/29 02:38:56;;;;;;;12.27;3.00;;;13.90;99.90;;;;;;5073846;28;20123;-86
2021/07/29 02:41:23;;;;;;;12.90;2.72;;;13.80;99.90;;;;;;5073218;28;20087;-86
2021/07/29 02:43:50;;;;;;;15.55;2.88;;;13.90;99.90;;;;;;5057818;28;20067;-85
2021/07/29 02:46:17;;;;;;;15.32;2.50;;;13.90;99.90;;;;;;5084267;28;20048;-85
2021/07/29 02:48:45;;;;;;;16.05;2.95;;;13.80;99.90;;;;;;5064350;28;20440;-86
2021/07/29 02:51:12;;;;;;;13.13;2.47;;;13.80;99.90;;;;;;5071973;28;20124;-86
2021/07/29 02:53:39;;;;;;;14.05;2.88;;;13.80;99.90;;;;;;5055371;28;20132;-86
2021/07/29 02:56:08;;;;;;;16.75;2.65;;;13.70;99.90;;;;;;5072611;28;20051;-86
2021/07/29 02:58:35;;;;;;;13.95;2.55;;;13.70;99.90;;;;;;5073363;28;20040;-86
2021/07/29 03:01:03;;;;;;;14.18;2.40;;;13.70;99.90;;;;;;5072938;28;20486;-86
2021/07/29 03:03:31;;;;;;;14.38;2.30;;;13.70;99.90;;;;;;5071886;28;20044;-86
2021/07/29 03:05:59;;;;;;;11.60;2.42;;;13.70;99.90;;;;;;5072699;28;20458;-87
2021/07/29 03:08:26;;;;;;;20.15;2.83;;;13.70;99.90;;;;;;5071938;28;20041;-87
2021/07/29 03:10:53;;;;;;;14.15;2.90;;;13.60;99.90;;;;;;5055354;28;20049;-86
2021/07/29 03:13:20;;;;;;;14.85;2.20;;;13.60;99.90;;;;;;5072433;28;20472;-86
2021/07/29 03:15:47;;;;;;;13.50;3.25;;;13.60;99.90;;;;;;5072455;28;20535;-86
2021/07/29 03:18:14;;;;;;;10.63;2.50;;;13.60;99.90;;;;;;5071971;28;20102;-86
2021/07/29 03:20:42;;;;;;;10.63;2.80;;;13.60;99.90;;;;;;5063903;28;20063;-86
2021/07/29 03:23:10;;;;;;;15.00;3.17;;;13.60;99.90;;;;;;5071325;28;20123;-86
2021/07/29 03:25:37;;;;;;;17.33;2.92;;;13.60;99.90;;;;;;5055259;28;20047;-86
2021/07/29 03:28:05;;;;;;;14.50;2.65;;;13.50;99.90;;;;;;5071787;28;20116;-85
2021/07/29 03:30:32;;;;;;;17.17;2.78;;;13.50;99.90;;;;;;5072376;28;20547;-86
2021/07/29 03:33:00;;;;;;;11.80;2.50;;;13.50;99.90;;;;;;5072232;28;20074;-86
2021/07/29 03:35:27;;;;;;;13.20;2.58;;;13.50;99.90;;;;;;5054019;28;20117;-86
2021/07/29 03:37:54;;;;;;;15.35;2.60;;;13.50;99.90;;;;;;5072425;28;20059;-86
2021/07/29 03:40:21;;;;;;;12.00;2.85;;;13.50;99.90;;;;;;5072095;28;20046;-86
2021/07/29 03:42:48;;;;;;;15.95;3.20;;;13.50;99.90;;;;;;5072133;28;20127;-86
2021/07/29 03:45:15;;;;;;;8.57;2.53;;;13.50;99.90;;;;;;5071563;28;20055;-86
2021/07/29 03:47:42;;;;;;;17.98;2.85;;;13.50;99.90;;;;;;5054660;28;20068;-86
2021/07/29 03:50:09;;;;;;;14.60;2.80;;;13.50;99.90;;;;;;5071174;28;20040;-86
2021/07/29 03:52:37;;;;;;;13.50;3.20;;;13.50;99.90;;;;;;5072747;28;20399;-86
2021/07/29 03:55:07;;;;;;;19.02;3.00;;;13.40;99.90;;;;;;5072097;28;20110;-86
2021/07/29 03:57:34;;;;;;;17.00;3.05;;;13.40;99.90;;;;;;5071950;28;20040;-86
2021/07/29 04:00:05;;;;;;;12.73;2.55;;;13.40;99.90;;;;;;5072489;28;20131;-86
2021/07/29 04:02:33;;;;;;;14.60;3.45;;;13.40;99.90;;;;;;5073026;28;20055;-86
2021/07/29 04:05:02;;;;;;;14.77;3.05;;;13.40;99.90;;;;;;5083046;28;20135;-87
2021/07/29 04:07:29;;;;;;;10.48;2.88;;;13.40;99.90;;;;;;5072378;28;20040;-86
2021/07/29 04:09:57;;;;;;;15.93;2.95;;;13.40;99.90;;;;;;5072224;28;20044;-85
2021/07/29 04:12:24;;;;;;;16.38;3.15;;;13.40;99.90;;;;;;5072302;28;20057;-86
2021/07/29 04:14:51;;;;;;;10.07;2.38;;;13.30;99.90;;;;;;5053975;28;20040;-86
2021/07/29 04:17:18;;;;;;;12.45;2.88;;;13.30;99.90;;;;;;5052367;28;20090;-86
2021/07/29 04:19:46;;;;;;;7.88;3.15;;;13.30;99.90;;;;;;5072167;28;20131;-86
2021/07/29 04:22:13;;;;;;;15.07;2.80;;;13.30;99.90;;;;;;5071229;28;20055;-86
2021/07/29 04:24:40;;;;;;;16.90;2.95;;;13.30;99.90;;;;;;5071557;28;20051;-86
2021/07/29 04:27:07;;;;;;;15.10;2.85;;;13.30;99.90;;;;;;5060276;28;20297;-86
2021/07/29 04:29:35;;;;;;;13.40;3.00;;;13.30;99.90;;;;;;5070973;28;20071;-86
2021/07/29 04:32:04;;;;;;;19.23;2.97;;;13.30;99.90;;;;;;5053841;28;20055;-86
2021/07/29 04:34:32;;;;;;;19.75;3.03;;;13.30;99.90;;;;;;5073491;28;20068;-86
2021/07/29 04:37:00;;;;;;;25.63;4.00;;;13.30;99.90;;;;;;5075755;28;20492;-86
2021/07/29 04:39:29;;;;;;;15.57;2.97;;;13.30;99.90;;;;;;5057381;28;20040;-87
2021/07/29 04:41:56;;;;;;;16.63;3.20;;;13.30;99.90;;;;;;5075460;28;20049;-86
2021/07/29 04:44:23;;;;;;;13.40;3.13;;;13.30;99.90;;;;;;5074733;28;20070;-86
2021/07/29 04:46:50;;;;;;;19.35;3.08;;;13.30;99.90;;;;;;5057987;28;20048;-86
2021/07/29 04:49:20;;;;;;;15.63;2.72;;;13.30;99.90;;;;;;5074203;28;20068;-86
2021/07/29 04:51:47;;;;;;;16.23;3.22;;;13.30;99.90;;;;;;5075140;28;20064;-86
2021/07/29 04:54:14;;;;;;;10.80;2.97;;;13.30;99.90;;;;;;5065898;28;20119;-86
2021/07/29 04:56:42;;;;;;;15.32;3.20;;;13.30;99.90;;;;;;5075790;28;20045;-87
2021/07/29 04:59:09;;;;;;;12.63;2.95;;;13.30;99.90;;;;;;5074256;28;20048;-85
2021/07/29 05:01:38;;;;;;;13.52;3.42;;;13.40;99.90;;;;;;5065303;28;20404;-86
2021/07/29 05:04:06;;;;;;;13.00;2.88;;;13.40;99.90;;;;;;5082043;28;20041;-85
2021/07/29 05:06:37;;;;;;;11.23;2.63;;;13.40;99.90;;;;;;5075000;28;20124;-86
2021/07/29 05:09:04;;;;;;;19.65;3.47;;;13.40;99.90;;;;;;5075031;28;20076;-86
2021/07/29 05:11:31;;;;;;;16.15;2.80;;;13.50;99.90;;;;;;5056822;28;20049;-86
2021/07/29 05:13:58;;;;;;;15.02;3.15;;;13.50;99.90;;;;;;5057458;28;20060;-86
2021/07/29 05:16:25;;;;;;;11.75;2.85;;;13.50;99.90;;;;;;5055453;28;20051;-85
2021/07/29 05:18:53;;;;;;;11.40;3.15;;;13.60;99.90;;;;;;5075517;28;20055;-86
2021/07/29 05:21:20;;;;;;;13.50;3.00;;;13.60;99.90;;;;;;5075672;28;20041;-87
2021/07/29 05:23:48;;;;;;;18.10;3.08;;;13.60;99.90;;;;;;5075505;28;20052;-87
2021/07/29 05:26:16;;;;;;;10.27;2.72;;;13.70;99.90;;;;;;5042332;28;20123;-87
2021/07/29 05:28:44;;;;;;;12.82;3.08;;;13.70;99.90;;;;;;5049535;28;20060;-89
2021/07/29 05:31:12;;;;;;;11.80;2.60;;;13.70;99.90;;;;;;5052924;28;20549;-86
2021/07/29 05:33:40;;;;;;;18.80;3.03;;;13.80;99.90;;;;;;5047039;28;20041;-87
2021/07/29 05:36:07;;;;;;;10.73;2.55;;;13.80;99.90;;;;;;5044792;28;20048;-86
2021/07/29 05:38:35;;;;;;;11.13;2.67;;;13.80;99.90;;;;;;5053871;28;20502;-87
2021/07/29 05:41:07;;;;;;;15.38;3.03;;;13.90;99.90;;;;;;5070804;28;20499;-87
2021/07/29 05:43:39;;;;;;;14.70;2.67;;;14.00;99.90;;;;;;5058887;28;20068;-87
2021/07/29 05:46:13;;;;;;;14.40;2.92;;;14.00;99.90;;;;;;5045279;28;20078;-86
2021/07/29 05:48:40;;;;;;;13.57;2.42;;;14.00;99.90;;;;;;5063657;28;20056;-87
2021/07/29 05:51:08;;;;;;;10.95;2.53;;;14.10;99.90;;;;;;5072729;28;20102;-87
2021/07/29 05:53:35;;;;;;;11.40;2.88;;;14.20;99.90;;;;;;5065531;28;20036;-87
2021/07/29 05:56:03;;;;;;;19.63;2.95;;;14.20;99.90;;;;;;5050493;28;20072;-87
2021/07/29 05:58:41;;;;;;;13.10;2.17;;;14.30;99.90;;;;;;5067695;28;20048;-91
2021/07/29 06:01:19;;;;;;;13.45;2.50;;;14.40;99.90;;;;;;5069448;28;20517;-89
2021/07/29 06:04:06;;;;;;;13.20;2.40;;;14.40;99.90;;;;;;4977538;28;20057;-88
2021/07/29 06:06:39;;;;;;;15.68;2.38;;;14.50;99.90;;;;;;4976676;28;20046;-88
2021/07/29 06:09:08;;;;;;;10.05;2.05;;;14.60;99.90;;;;;;4991487;28;20097;-88
2021/07/29 06:11:35;;;;;;;11.20;2.67;;;14.70;99.90;;;;;;4976245;28;20490;-88
2021/07/29 06:14:03;;;;;;;15.68;2.40;;;14.80;99.90;;;;;;4976662;28;20054;-89
2021/07/29 06:16:39;;;;;;;14.05;2.90;;;14.80;99.90;;;;;;4950899;28;20489;-89
2021/07/29 06:19:14;;;;;;;11.82;2.53;;;14.90;99.90;;;;;;4980583;28;20081;-88
2021/07/29 06:21:41;;;;;;;16.40;2.55;;;15.00;99.90;;;;;;5012908;28;20076;-86
2021/07/29 06:24:08;;;;;;;10.77;2.28;;;15.10;99.90;;;;;;5044671;28;21686;-86
2021/07/29 06:26:37;;;;;;;12.75;2.05;;;15.20;99.90;;;;;;5053934;28;20043;-86
2021/07/29 06:29:06;;;;;;;11.43;2.53;;;15.20;99.90;;;;;;5035181;28;20057;-86
2021/07/29 06:31:33;;;;;;;9.57;2.08;;;15.30;99.90;;;;;;5054060;28;20055;-85
2021/07/29 06:34:01;;;;;;;13.85;2.08;;;15.40;99.90;;;;;;5053881;28;20045;-86
2021/07/29 06:36:28;;;;;;;11.18;2.13;;;15.50;99.90;;;;;;5031278;28;20064;-85
2021/07/29 06:38:57;;;;;;;10.45;2.08;;;15.60;99.90;;;;;;5035065;28;20076;-85
2021/07/29 06:41:25;;;;;;;15.27;2.30;;;15.60;99.90;;;;;;5056393;28;20132;-87
2021/07/29 06:43:52;;;;;;;15.00;2.00;;;15.70;99.90;;;;;;5055094;28;20132;-86
2021/07/29 06:46:19;;;;;;;15.18;2.17;;;15.80;99.90;;;;;;5052823;28;20053;-85
2021/07/29 06:48:48;;;;;;;9.90;1.88;;;15.90;99.90;;;;;;5053125;28;20049;-86
2021/07/29 06:51:16;;;;;;;11.80;1.73;;;16.00;99.90;;;;;;5043524;28;20055;-85
2021/07/29 06:53:43;;;;;;;14.77;2.72;;;16.10;99.90;;;;;;5053174;28;20436;-86
2021/07/29 06:56:14;;;;;;;8.07;1.63;;;16.20;99.90;;;;;;5025139;28;20041;-89
2021/07/29 06:59:00;;;;;;;;;;;;;;;;;;;;;
2021/07/29 07:01:57;;;;;;;11.32;2.35;;;16.40;99.90;;;;;;5002278;28;20052;-89
2021/07/29 07:05:02;;;;;;;;;;;;;;;;;;;;;
2021/07/29 07:07:49;;;;;;;;;;;;;;;;;;;;;
2021/07/29 07:10:22;;;;;;;12.02;1.60;;;16.70;99.90;;;;;;4957667;28;20542;-89
2021/07/29 07:13:20;;;;;;;11.80;1.77;;;16.70;99.90;;;;;;4955985;28;20509;-90
2021/07/29 07:15:58;;;;;;;11.82;1.88;;;16.80;99.90;;;;;;4950020;28;20518;-89
2021/07/29 07:18:48;;;;;;;10.13;1.80;;;16.90;99.90;;;;;;4920758;29;20047;-89
2021/07/29 07:21:38;;;;;;;8.98;1.80;;;17.00;99.90;;;;;;4919449;29;20483;-89
2021/07/29 07:24:15;;;;;;;9.73;1.90;;;17.10;99.90;;;;;;4949696;28;20991;-90
2021/07/29 07:26:48;;;;;;;10.77;1.77;;;17.20;99.90;;;;;;4946240;28;20050;-89
2021/07/29 07:29:18;;;;;;;8.50;1.75;;;17.30;99.90;;;;;;4920217;28;20480;-89
2021/07/29 07:31:49;;;;;;;7.03;1.52;;;17.30;99.90;;;;;;4972561;28;20041;-89
2021/07/29 07:34:26;;;;;;;10.38;1.63;;;17.20;99.90;;;;;;4952101;28;20782;-89
2021/07/29 07:36:59;;;;;;;6.63;1.73;;;17.30;99.90;;;;;;5010473;28;20551;-89
2021/07/29 07:39:34;;;;;;;9.35;1.77;;;17.40;99.90;;;;;;5015210;28;20087;-89
2021/07/29 07:42:08;;;;;;;10.07;1.52;;;17.50;99.90;;;;;;5025290;28;20045;-90
2021/07/29 07:44:39;;;;;;;7.40;1.60;;;17.70;99.90;;;;;;5025826;28;20697;-89
2021/07/29 07:47:08;;;;;;;9.10;1.63;;;17.90;99.90;;;;;;5016421;28;20498;-89
2021/07/29 07:49:38;;;;;;;9.20;1.60;;;18.10;99.90;;;;;;5027356;28;20059;-89
2021/07/29 07:52:17;;;;;;;7.70;1.23;;;18.10;99.90;;;;;;5034894;28;20053;-89
2021/07/29 07:54:57;;;;;;;;;;;;;;;;;;;;;
2021/07/29 07:57:38;;;;;;;7.75;1.17;;;17.90;99.90;;;;;;5035842;28;20041;-89
2021/07/29 08:00:09;;;;;;;9.38;1.80;;;17.90;99.90;;;;;;5049264;28;20049;-89
2021/07/29 08:02:46;;;;;;;9.77;1.70;;;17.90;99.90;;;;;;5062164;28;20050;-89
2021/07/29 08:05:22;;;;;;;5.38;1.70;;;17.90;99.90;;;;;;5044013;28;20056;-89
2021/07/29 08:08:13;;;;;;;;;;;;;;;;;;;;;
2021/07/29 08:10:48;;;;;;;9.30;1.75;;;18.00;99.90;;;;;;5059332;28;20090;-89
2021/07/29 08:13:59;;;;;;;;;;;;;;;;;;;;;
2021/07/29 08:16:46;;;;;;;9.02;1.60;;;18.20;99.90;;;;;;4951914;28;20042;-90
2021/07/29 08:19:18;;;;;;;7.90;1.73;;;18.30;99.90;;;;;;4950899;28;20137;-89
2021/07/29 08:21:51;;;;;;;4.28;1.35;;;18.40;99.90;;;;;;4952920;28;20122;-89
2021/07/29 08:26:57;;;;;;;6.93;1.50;;;18.30;99.90;;;;;;5043136;28;20040;-90
2021/07/29 08:29:29;;;;;;;5.95;1.50;;;18.20;99.90;;;;;;5031615;28;20041;-90
2021/07/29 08:31:58;;;;;;;6.75;1.23;;;18.10;99.90;;;;;;5039597;28;20056;-89
2021/07/29 08:34:31;;;;;;;8.35;1.60;;;18.10;99.90;;;;;;5033654;28;20037;-89
2021/07/29 08:37:11;;;;;;;8.07;1.40;;;18.20;99.90;;;;;;5039734;28;20040;-89
2021/07/29 08:39:53;;;;;;;6.80;1.20;;;18.30;99.90;;;;;;5049401;28;20048;-90
2021/07/29 08:42:36;;;;;;;8.73;1.75;;;18.50;99.90;;;;;;5017791;28;20044;-89
2021/07/29 08:45:06;;;;;;;7.25;1.20;;;18.60;99.90;;;;;;5037281;28;20132;-89
2021/07/29 08:47:41;;;;;;;10.23;1.23;;;18.60;99.90;;;;;;5031467;28;20052;-90
2021/07/29 08:50:19;;;;;;;7.90;1.70;;;18.70;99.90;;;;;;5023912;28;20043;-89
2021/07/29 08:53:01;;;;;;;7.60;1.50;;;18.80;99.90;;;;;;5009560;28;20049;-90
2021/07/29 08:55:55;;;;;;;6.82;1.45;;;19.10;99.90;;;;;;4994887;28;20373;-89
2021/07/29 08:58:49;;;;;;;;;;;;;;;;;;;;;
2021/07/29 09:02:01;;;;;;;5.05;1.05;;;19.50;99.90;;;;;;5034468;28;20046;-88
2021/07/29 09:05:10;;;;;;;7.38;1.60;;;19.60;99.90;;;;;;5031053;28;20091;-89
2021/07/29 09:07:45;;;;;;;6.20;1.20;;;19.50;99.90;;;;;;5026416;28;20045;-90
2021/07/29 09:10:29;;;;;;;4.82;1.08;;;19.50;99.90;;;;;;5017149;28;20494;-88
2021/07/29 09:13:27;;;;;;;3.58;1.13;;;19.60;99.90;;;;;;5026109;28;20084;-89
2021/07/29 09:16:12;;;;;;;7.32;1.40;;;19.60;99.90;;;;;;5010749;28;20052;-89
2021/07/29 09:19:01;;;;;;;6.83;1.30;;;19.70;99.90;;;;;;5022997;28;20111;-91
2021/07/29 09:21:48;;;;;;;5.75;1.20;;;19.80;99.90;;;;;;5010950;28;20048;-90
2021/07/29 09:24:38;;;;;;;8.07;1.33;;;20.10;99.90;;;;;;5025998;28;20065;-89
2021/07/29 09:27:09;;;;;;;5.50;1.23;;;20.20;99.90;;;;;;5026406;28;20052;-89
2021/07/29 09:30:06;;;;;;;4.63;1.20;;;20.20;99.90;;;;;;5029435;28;20048;-90
2021/07/29 09:33:02;;;;;;;;;;;;;;;;;;;;;
2021/07/29 09:35:51;;;;;;;5.85;1.10;;;20.60;99.90;;;;;;5031704;28;20078;-90
2021/07/29 09:38:38;;;;;;;;;;;;;;;;;;;;;
2021/07/29 09:41:24;;;;;;;4.90;1.17;;;20.70;99.90;;;;;;5036842;28;20060;-90
2021/07/29 09:44:15;;;;;;;5.00;1.17;;;20.70;99.90;;;;;;5037885;28;20076;-90
2021/07/29 09:46:46;;;;;;;6.38;1.35;;;20.70;99.90;;;;;;5047283;28;20055;-90
2021/07/29 09:49:21;;;;;;;4.90;1.30;;;20.80;99.90;;;;;;5044438;28;20450;-90
2021/07/29 09:52:17;;;;;;;6.20;1.33;;;21.00;99.90;;;;;;4964278;28;20069;-90
2021/07/29 09:54:57;;;;;;;6.07;1.23;;;21.10;99.90;;;;;;4976363;28;20407;-90
2021/07/29 09:57:51;;;;;;;4.72;0.98;;;21.20;99.90;;;;;;4946021;28;20046;-90
2021/07/29 10:00:22;;;;;;;4.32;1.08;;;21.20;99.90;;;;;;4993496;28;20034;-90
2021/07/29 10:03:04;;;;;;;8.55;1.10;;;21.30;99.90;;;;;;4982432;28;20049;-90
2021/07/29 10:05:50;;;;;;;6.55;1.27;;;21.30;99.90;;;;;;4976619;28;20061;-89
2021/07/29 10:09:06;;;;;;;4.53;1.13;;;21.10;99.90;;;;;;4988828;28;20042;-88
2021/07/29 10:11:46;;;;;;;4.75;1.00;;;20.80;99.90;;;;;;4969335;28;20050;-89
2021/07/29 10:14:21;;;;;;;5.95;1.23;;;20.70;99.90;;;;;;4955815;28;20046;-88
2021/07/29 10:17:03;;;;;;;5.43;1.00;;;20.70;99.90;;;;;;4959669;28;20614;-89
2021/07/29 10:19:30;;;;;;;5.75;1.15;;;20.80;99.90;;;;;;4929332;29;20047;-88
2021/07/29 10:22:26;;;;;;;4.07;1.15;;;20.80;99.90;;;;;;4952270;28;20077;-88
2021/07/29 10:25:06;;;;;;;;;;;;;;;;;;;;;
2021/07/29 10:28:03;;;;;;;5.25;0.98;;;20.70;99.90;;;;;;4965083;28;20117;-89
2021/07/29 10:31:06;;;;;;;6.90;1.10;;;20.90;99.90;;;;;;4917348;29;20512;-89
2021/07/29 10:34:14;;;;;;;;;;;;;;;;;;;;;
2021/07/29 10:36:48;;;;;;;5.70;1.02;;;21.40;99.90;;;;;;4968381;28;20134;-89
2021/07/29 10:39:32;;;;;;;5.40;1.10;;;21.60;99.90;;;;;;4932823;28;20053;-88
2021/07/29 10:42:00;;;;;;;3.75;1.00;;;21.70;99.90;;;;;;4972612;28;20105;-86
2021/07/29 10:44:36;;;;;;;7.10;1.23;;;21.80;99.90;;;;;;4956393;28;20047;-84
2021/07/29 10:47:06;;;;;;;6.00;0.98;;;21.80;99.90;;;;;;4992712;28;20055;-85
2021/07/29 10:49:53;;;;;;;4.50;1.10;;;21.80;99.90;;;;;;5035148;28;20116;-86
2021/07/29 10:52:20;;;;;;;5.00;1.10;;;21.80;99.90;;;;;;5067806;28;20128;-85
2021/07/29 10:54:47;;;;;;;5.95;0.90;;;21.90;99.90;;;;;;5054544;28;20386;-85
2021/07/29 10:57:14;;;;;;;5.25;0.98;;;22.00;99.90;;;;;;5051810;28;20064;-86
2021/07/29 10:59:41;;;;;;;6.32;0.90;;;22.00;99.90;;;;;;5055984;28;20072;-86
2021/07/29 11:04:57;;;;;;;3.90;1.10;;;21.90;99.90;;;;;;5075459;28;20064;-84
2021/07/29 11:07:25;;;;;;;3.40;0.93;;;21.90;99.90;;;;;;5072260;28;20048;-85
2021/07/29 11:10:05;;;;;;;3.65;0.90;;;21.80;99.90;;;;;;5065364;28;20052;-85
2021/07/29 11:12:35;;;;;;;3.65;1.05;;;22.00;99.90;;;;;;5082114;28;20127;-85
2021/07/29 11:15:03;;;;;;;5.50;1.20;;;22.00;99.90;;;;;;5085576;28;20083;-85
2021/07/29 11:17:30;;;;;;;3.63;1.10;;;22.10;99.90;;;;;;5077583;28;20039;-85
2021/07/29 11:19:57;;;;;;;4.32;0.93;;;22.10;99.90;;;;;;5086002;28;20048;-84
2021/07/29 11:22:24;;;;;;;4.63;0.85;;;22.00;99.90;;;;;;5058460;28;20066;-86
2021/07/29 11:24:51;;;;;;;3.15;0.77;;;21.90;99.90;;;;;;5079096;28;20061;-85
2021/07/29 11:27:31;;;;;;;4.93;1.08;;;21.70;99.90;;;;;;5078424;28;20163;-85
2021/07/29 11:29:59;;;;;;;4.00;0.80;;;21.80;99.90;;;;;;5061020;28;20487;-86
2021/07/29 11:32:56;;;;;;;6.38;0.93;;;22.00;99.90;;;;;;5057012;28;20051;-85
2021/07/29 11:35:27;;;;;;;3.47;0.73;;;22.10;99.90;;;;;;5035502;28;20395;-85
2021/07/29 11:37:55;;;;;;;3.58;0.77;;;22.20;99.90;;;;;;5071334;28;20056;-85
2021/07/29 11:40:23;;;;;;;4.03;0.75;;;22.20;99.90;;;;;;5077051;28;20135;-85
2021/07/29 11:42:51;;;;;;;4.97;0.80;;;22.30;99.90;;;;;;5080045;28;20051;-85
2021/07/29 11:45:29;;;;;;;3.20;0.68;;;22.30;99.90;;;;;;5076853;28;20128;-85
2021/07/29 11:47:56;;;;;;;3.17;0.87;;;22.30;99.90;;;;;;5078488;28;20053;-85
2021/07/29 11:50:41;;;;;;;3.03;0.75;;;22.40;99.90;;;;;;5080418;28;20053;-85
2021/07/29 11:53:09;;;;;;;3.63;1.10;;;22.50;99.50;;;;;;5070399;28;20109;-85
2021/07/29 11:55:38;;;;;;;4.35;1.00;;;22.40;99.90;;;;;;5067040;28;20056;-85
2021/07/29 11:58:13;;;;;;;6.28;0.98;;;22.50;99.90;;;;;;5052551;28;20466;-85
2021/07/29 12:00:41;;;;;;;3.25;1.02;;;22.60;99.90;;;;;;5075845;28;20125;-85
2021/07/29 12:03:31;;;;;;;4.93;1.13;;;22.60;99.90;;;;;;5063337;28;20154;-85
2021/07/29 12:06:00;;;;;;;2.30;1.00;;;22.70;99.90;;;;;;5052941;28;20438;-85
2021/07/29 12:08:29;;;;;;;3.13;0.95;;;22.70;99.90;;;;;;5068244;28;20143;-85
2021/07/29 12:10:58;;;;;;;2.58;0.80;;;22.80;99.80;;;;;;5071224;28;20143;-85
2021/07/29 12:13:28;;;;;;;3.42;1.00;;;22.90;99.50;;;;;;5070259;28;20070;-86
2021/07/29 12:15:57;;;;;;;3.10;1.15;;;22.90;99.20;;;;;;5068927;28;20048;-85
2021/07/29 12:18:26;;;;;;;5.00;1.08;;;22.90;98.90;;;;;;5067065;28;20543;-85
2021/07/29 12:20:54;;;;;;;2.95;0.60;;;22.90;98.90;;;;;;5053488;28;20127;-85
2021/07/29 12:23:23;;;;;;;4.43;0.88;;;23.00;99.10;;;;;;5052102;28;20518;-85
2021/07/29 12:25:52;;;;;;;3.00;0.90;;;23.10;98.80;;;;;;5071193;28;20053;-85
2021/07/29 12:28:51;;;;;;;2.80;0.88;;;23.10;98.50;;;;;;5068857;28;20072;-85
2021/07/29 12:31:29;;;;;;;3.13;0.70;;;23.10;97.40;;;;;;4988773;28;20042;-85
2021/07/29 12:34:01;;;;;;;3.88;1.10;;;23.10;98.00;;;;;;4989557;28;20046;-86
2021/07/29 12:36:48;;;;;;;2.70;0.80;;;23.20;98.40;;;;;;4989310;28;20066;-85
2021/07/29 12:39:17;;;;;;;3.53;1.10;;;23.30;98.60;;;;;;4988516;28;20477;-85
2021/07/29 12:41:47;;;;;;;4.25;1.17;;;23.30;98.20;;;;;;4989347;28;20052;-85
2021/07/29 12:44:21;;;;;;;3.42;0.95;;;23.30;98.70;;;;;;4988983;28;20454;-86
2021/07/29 12:46:49;;;;;;;4.78;1.08;;;23.40;99.10;;;;;;4993967;28;20137;-85
2021/07/29 12:49:17;;;;;;;4.25;0.80;;;23.40;99.40;;;;;;4989536;28;20178;-87
2021/07/29 12:51:51;;;;;;;5.20;1.00;;;23.50;99.30;;;;;;4969468;28;20053;-87
2021/07/29 12:54:20;;;;;;;3.58;0.90;;;23.40;99.10;;;;;;4989257;28;20509;-87
2021/07/29 12:57:09;;;;;;;3.17;1.00;;;23.50;98.90;;;;;;4995709;28;20291;-86
2021/07/29 12:59:36;;;;;;;4.70;0.80;;;23.40;97.50;;;;;;4990911;28;20066;-85
2021/07/29 13:02:03;;;;;;;3.72;1.17;;;23.30;98.20;;;;;;4990975;28;20046;-84
2021/07/29 13:04:30;;;;;;;3.17;0.75;;;23.20;98.20;;;;;;4990977;28;20521;-84
2021/07/29 13:06:59;;;;;;;3.35;0.88;;;23.10;98.10;;;;;;5032982;28;20048;-85
2021/07/29 13:09:28;;;;;;;3.35;0.80;;;23.10;98.50;;;;;;5052335;28;20041;-84
2021/07/29 13:11:55;;;;;;;2.70;0.70;;;23.10;98.70;;;;;;5073526;28;20063;-84
2021/07/29 13:14:22;;;;;;;4.25;1.10;;;23.10;98.60;;;;;;5071631;28;20051;-84
2021/07/29 13:16:49;;;;;;;4.07;1.00;;;23.10;98.60;;;;;;5057544;28;20098;-84
2021/07/29 13:19:16;;;;;;;3.30;1.02;;;23.10;98.40;;;;;;5049896;28;20063;-84
2021/07/29 13:21:43;;;;;;;5.82;0.80;;;23.20;98.20;;;;;;5073224;28;20041;-84
2021/07/29 13:24:11;;;;;;;3.22;0.95;;;23.20;98.40;;;;;;5071011;28;20052;-84
2021/07/29 13:26:38;;;;;;;2.10;0.80;;;23.30;98.30;;;;;;5073383;28;20051;-84
2021/07/29 13:29:05;;;;;;;3.90;1.20;;;23.30;98.20;;;;;;5072612;28;20068;-84
2021/07/29 13:31:34;;;;;;;2.60;0.73;;;23.30;98.00;;;;;;5057266;28;20063;-84